Wausau, Florida
Current Conditions -  °F | °C
As of 4:58 PM on Wednesday 26 Nov 2014 (Local Time) from K1J0 Reporting Station
Clear Clear  
Wind Chill: 51°   Ceiling: Unl
Heat Index: 51°   Visibility: 10mi
Dew Point: 42°   Wind: 0mph
Humidity: 71%   Direction: NA
Pressure: 30.17"   Gusts: NA
Location:  30.63°N, 85.59°W
Report Text: K1J0 262258Z AUTO 00000KT 10SM CLR 11/06 A3017 RMK AO2 SLP203 T01060056
Loading
Personal Weather Stations






























Interactive Weather Map New forecast layout! Learn more

10-Day Weather Forecast

Advertisements
Track Severe Weather on mobile